sensor_id;sensor_type;location;lat;lon;timestamp;temperature;humidity
41469;DHT22;27206;47.032;15.484;2022-10-04T00:01:02;7.50;1.00
41469;DHT22;27206;47.032;15.484;2022-10-04T00:03:31;7.60;1.00
41469;DHT22;27206;47.032;15.484;2022-10-04T00:05:58;7.60;1.00
41469;DHT22;27206;47.032;15.484;2022-10-04T00:08:40;7.50;1.00
41469;DHT22;27206;47.032;15.484;2022-10-04T00:11:24;7.40;1.00
41469;DHT22;27206;47.032;15.484;2022-10-04T00:13:55;7.40;1.00
41469;DHT22;27206;47.032;15.484;2022-10-04T00:16:22;7.30;1.00
41469;DHT22;27206;47.032;15.484;2022-10-04T00:18:59;7.40;1.00
41469;DHT22;27206;47.032;15.484;2022-10-04T00:21:24;7.40;1.00
41469;DHT22;27206;47.032;15.484;2022-10-04T00:24:17;7.20;1.00
41469;DHT22;27206;47.032;15.484;2022-10-04T00:37:01;7.20;1.00
41469;DHT22;27206;47.032;15.484;2022-10-04T00:46:59;7.10;1.00
41469;DHT22;27206;47.032;15.484;2022-10-04T00:49:31;7.10;1.00
41469;DHT22;27206;47.032;15.484;2022-10-04T00:52:06;7.10;1.00
41469;DHT22;27206;47.032;15.484;2022-10-04T00:54:37;7.10;1.00
41469;DHT22;27206;47.032;15.484;2022-10-04T00:59:43;7.00;1.00
41469;DHT22;27206;47.032;15.484;2022-10-04T01:04:38;7.00;1.00
41469;DHT22;27206;47.032;15.484;2022-10-04T01:07:05;6.90;1.00
41469;DHT22;27206;47.032;15.484;2022-10-04T01:09:31;6.90;1.00
41469;DHT22;27206;47.032;15.484;2022-10-04T01:12:01;6.80;1.00
41469;DHT22;27206;47.032;15.484;2022-10-04T01:14:49;6.80;1.00
41469;DHT22;27206;47.032;15.484;2022-10-04T01:17:15;6.80;1.00
41469;DHT22;27206;47.032;15.484;2022-10-04T01:19:48;6.90;1.00
41469;DHT22;27206;47.032;15.484;2022-10-04T01:22:28;6.90;1.00
41469;DHT22;27206;47.032;15.484;2022-10-04T01:24:55;6.80;1.00
41469;DHT22;27206;47.032;15.484;2022-10-04T01:27:40;6.70;1.00
41469;DHT22;27206;47.032;15.484;2022-10-04T01:30:08;6.70;1.00
41469;DHT22;27206;47.032;15.484;2022-10-04T01:32:34;6.70;1.00
41469;DHT22;27206;47.032;15.484;2022-10-04T01:35:01;6.70;1.00
41469;DHT22;27206;47.032;15.484;2022-10-04T01:37:27;6.70;1.00
41469;DHT22;27206;47.032;15.484;2022-10-04T01:39:53;6.70;1.00
41469;DHT22;27206;47.032;15.484;2022-10-04T01:42:22;6.60;1.00
41469;DHT22;27206;47.032;15.484;2022-10-04T01:44:51;6.70;1.00
41469;DHT22;27206;47.032;15.484;2022-10-04T01:47:22;6.70;1.00
41469;DHT22;27206;47.032;15.484;2022-10-04T01:49:48;6.60;1.00
41469;DHT22;27206;47.032;15.484;2022-10-04T01:52:23;6.60;1.00
41469;DHT22;27206;47.032;15.484;2022-10-04T01:54:52;6.60;1.00
41469;DHT22;27206;47.032;15.484;2022-10-04T01:57:25;6.40;1.00
41469;DHT22;27206;47.032;15.484;2022-10-04T01:59:54;6.50;1.00
41469;DHT22;27206;47.032;15.484;2022-10-04T02:04:51;6.50;1.00
41469;DHT22;27206;47.032;15.484;2022-10-04T02:07:18;6.40;1.00
41469;DHT22;27206;47.032;15.484;2022-10-04T02:09:45;6.40;1.00
41469;DHT22;27206;47.032;15.484;2022-10-04T02:12:15;6.30;1.00
41469;DHT22;27206;47.032;15.484;2022-10-04T02:14:45;6.30;1.00
41469;DHT22;27206;47.032;15.484;2022-10-04T02:17:17;6.30;1.00
41469;DHT22;27206;47.032;15.484;2022-10-04T02:19:43;6.30;1.00
41469;DHT22;27206;47.032;15.484;2022-10-04T02:22:09;6.30;1.00
41469;DHT22;27206;47.032;15.484;2022-10-04T02:24:42;6.20;1.00
41469;DHT22;27206;47.032;15.484;2022-10-04T02:27:09;6.20;1.00
41469;DHT22;27206;47.032;15.484;2022-10-04T02:29:35;6.10;1.00
41469;DHT22;27206;47.032;15.484;2022-10-04T02:32:02;6.00;1.00
41469;DHT22;27206;47.032;15.484;2022-10-04T02:34:46;6.00;1.00
41469;DHT22;27206;47.032;15.484;2022-10-04T02:37:12;6.00;1.00
41469;DHT22;27206;47.032;15.484;2022-10-04T02:39:39;6.00;1.00
41469;DHT22;27206;47.032;15.484;2022-10-04T02:42:11;6.00;1.00
41469;DHT22;27206;47.032;15.484;2022-10-04T02:45:03;6.10;1.00
41469;DHT22;27206;47.032;15.484;2022-10-04T02:47:25;6.10;1.00
41469;DHT22;27206;47.032;15.484;2022-10-04T02:49:57;6.10;1.00
41469;DHT22;27206;47.032;15.484;2022-10-04T02:57:20;6.10;1.00
41469;DHT22;27206;47.032;15.484;2022-10-04T02:59:46;6.10;1.00
41469;DHT22;27206;47.032;15.484;2022-10-04T03:02:22;6.00;1.00
41469;DHT22;27206;47.032;15.484;2022-10-04T03:04:48;6.00;1.00
41469;DHT22;27206;47.032;15.484;2022-10-04T03:07:15;6.00;1.00
41469;DHT22;27206;47.032;15.484;2022-10-04T03:09:41;6.00;1.00
41469;DHT22;27206;47.032;15.484;2022-10-04T03:12:07;5.90;1.00
41469;DHT22;27206;47.032;15.484;2022-10-04T03:14:36;5.90;1.00
41469;DHT22;27206;47.032;15.484;2022-10-04T03:17:02;5.80;1.00
41469;DHT22;27206;47.032;15.484;2022-10-04T03:19:31;5.80;1.00
41469;DHT22;27206;47.032;15.484;2022-10-04T03:21:58;5.70;1.00
41469;DHT22;27206;47.032;15.484;2022-10-04T03:24:47;5.50;1.00
41469;DHT22;27206;47.032;15.484;2022-10-04T03:27:13;5.50;1.00
41469;DHT22;27206;47.032;15.484;2022-10-04T03:29:39;5.70;1.00
41469;DHT22;27206;47.032;15.484;2022-10-04T03:32:08;5.80;1.00
41469;DHT22;27206;47.032;15.484;2022-10-04T03:34:37;5.70;1.00
41469;DHT22;27206;47.032;15.484;2022-10-04T03:37:08;5.70;1.00
41469;DHT22;27206;47.032;15.484;2022-10-04T03:39:42;5.70;1.00
41469;DHT22;27206;47.032;15.484;2022-10-04T03:42:13;5.80;1.00
41469;DHT22;27206;47.032;15.484;2022-10-04T03:44:40;5.70;1.00
41469;DHT22;27206;47.032;15.484;2022-10-04T03:47:15;5.70;1.00
41469;DHT22;27206;47.032;15.484;2022-10-04T03:49:41;5.70;1.00
41469;DHT22;27206;47.032;15.484;2022-10-04T03:54:37;5.70;1.00
41469;DHT22;27206;47.032;15.484;2022-10-04T03:57:02;5.70;1.00
41469;DHT22;27206;47.032;15.484;2022-10-04T03:59:30;5.70;1.00
41469;DHT22;27206;47.032;15.484;2022-10-04T04:07:02;5.60;1.00
41469;DHT22;27206;47.032;15.484;2022-10-04T04:12:09;5.70;1.00
41469;DHT22;27206;47.032;15.484;2022-10-04T04:14:35;5.60;1.00
41469;DHT22;27206;47.032;15.484;2022-10-04T04:20:02;5.60;1.00
41469;DHT22;27206;47.032;15.484;2022-10-04T04:22:29;5.50;1.00
41469;DHT22;27206;47.032;15.484;2022-10-04T04:25:02;5.50;1.00
41469;DHT22;27206;47.032;15.484;2022-10-04T04:27:30;5.50;1.00
41469;DHT22;27206;47.032;15.484;2022-10-04T04:29:58;5.60;1.00
41469;DHT22;27206;47.032;15.484;2022-10-04T04:32:28;5.70;1.00
41469;DHT22;27206;47.032;15.484;2022-10-04T04:34:59;5.70;1.00
41469;DHT22;27206;47.032;15.484;2022-10-04T04:37:34;5.60;1.00
41469;DHT22;27206;47.032;15.484;2022-10-04T04:40:10;5.60;1.00
41469;DHT22;27206;47.032;15.484;2022-10-04T04:42:35;5.70;1.00
41469;DHT22;27206;47.032;15.484;2022-10-04T04:45:12;5.60;1.00
41469;DHT22;27206;47.032;15.484;2022-10-04T04:47:42;5.70;1.00
41469;DHT22;27206;47.032;15.484;2022-10-04T04:50:22;5.70;1.00
41469;DHT22;27206;47.032;15.484;2022-10-04T04:52:49;5.70;1.00
41469;DHT22;27206;47.032;15.484;2022-10-04T04:55:17;5.70;1.00
41469;DHT22;27206;47.032;15.484;2022-10-04T04:57:43;5.70;1.00
41469;DHT22;27206;47.032;15.484;2022-10-04T05:00:15;5.70;1.00
41469;DHT22;27206;47.032;15.484;2022-10-04T05:02:41;5.70;1.00
41469;DHT22;27206;47.032;15.484;2022-10-04T05:07:42;5.80;1.00
41469;DHT22;27206;47.032;15.484;2022-10-04T05:12:52;5.90;1.00
41469;DHT22;27206;47.032;15.484;2022-10-04T05:15:18;5.90;1.00
41469;DHT22;27206;47.032;15.484;2022-10-04T05:17:43;6.00;1.00
41469;DHT22;27206;47.032;15.484;2022-10-04T05:20:09;6.00;1.00
41469;DHT22;27206;47.032;15.484;2022-10-04T05:22:35;6.10;1.00
41469;DHT22;27206;47.032;15.484;2022-10-04T05:25:08;6.00;1.00
41469;DHT22;27206;47.032;15.484;2022-10-04T05:27:35;6.10;1.00
41469;DHT22;27206;47.032;15.484;2022-10-04T05:30:06;6.10;1.00
41469;DHT22;27206;47.032;15.484;2022-10-04T05:35:18;6.20;1.00
41469;DHT22;27206;47.032;15.484;2022-10-04T05:40:37;6.40;1.00
41469;DHT22;27206;47.032;15.484;2022-10-04T05:43:51;6.50;1.00
41469;DHT22;27206;47.032;15.484;2022-10-04T05:48:51;6.60;1.00
41469;DHT22;27206;47.032;15.484;2022-10-04T05:51:18;6.60;1.00
41469;DHT22;27206;47.032;15.484;2022-10-04T05:53:44;6.70;1.00
41469;DHT22;27206;47.032;15.484;2022-10-04T06:01:16;7.10;1.00
41469;DHT22;27206;47.032;15.484;2022-10-04T06:06:27;7.10;1.00
41469;DHT22;27206;47.032;15.484;2022-10-04T06:09:01;7.10;1.00
41469;DHT22;27206;47.032;15.484;2022-10-04T06:14:05;7.10;1.00
41469;DHT22;27206;47.032;15.484;2022-10-04T06:24:37;7.30;1.00
41469;DHT22;27206;47.032;15.484;2022-10-04T06:29:34;7.40;1.00
41469;DHT22;27206;47.032;15.484;2022-10-04T06:32:13;7.40;1.00
41469;DHT22;27206;47.032;15.484;2022-10-04T06:40:24;7.60;1.00
41469;DHT22;27206;47.032;15.484;2022-10-04T06:43:13;7.60;1.00
41469;DHT22;27206;47.032;15.484;2022-10-04T06:45:47;7.70;1.00
41469;DHT22;27206;47.032;15.484;2022-10-04T06:53:17;7.90;1.00
41469;DHT22;27206;47.032;15.484;2022-10-04T07:00:46;7.90;1.00
41469;DHT22;27206;47.032;15.484;2022-10-04T07:03:18;8.00;1.00
41469;DHT22;27206;47.032;15.484;2022-10-04T07:05:49;8.00;1.00
41469;DHT22;27206;47.032;15.484;2022-10-04T07:08:18;8.10;1.00
41469;DHT22;27206;47.032;15.484;2022-10-04T07:11:16;8.10;1.00
41469;DHT22;27206;47.032;15.484;2022-10-04T07:18:56;8.30;1.00
41469;DHT22;27206;47.032;15.484;2022-10-04T07:21:23;8.60;1.00
41469;DHT22;27206;47.032;15.484;2022-10-04T07:23:56;8.80;1.00
41469;DHT22;27206;47.032;15.484;2022-10-04T07:26:27;8.80;1.00
41469;DHT22;27206;47.032;15.484;2022-10-04T07:28:55;9.00;1.00
41469;DHT22;27206;47.032;15.484;2022-10-04T07:31:40;9.20;1.00
41469;DHT22;27206;47.032;15.484;2022-10-04T07:34:12;9.20;1.00
41469;DHT22;27206;47.032;15.484;2022-10-04T07:36:47;9.40;1.00
41469;DHT22;27206;47.032;15.484;2022-10-04T07:39:16;9.60;1.00
41469;DHT22;27206;47.032;15.484;2022-10-04T07:44:32;9.80;1.00
41469;DHT22;27206;47.032;15.484;2022-10-04T07:47:20;10.00;1.00
41469;DHT22;27206;47.032;15.484;2022-10-04T07:49:45;10.10;1.00
41469;DHT22;27206;47.032;15.484;2022-10-04T08:00:21;10.60;1.00
41469;DHT22;27206;47.032;15.484;2022-10-04T08:13:05;11.50;1.00
41469;DHT22;27206;47.032;15.484;2022-10-04T08:15:37;11.60;1.00
41469;DHT22;27206;47.032;15.484;2022-10-04T08:18:19;11.80;1.00
41469;DHT22;27206;47.032;15.484;2022-10-04T08:20:47;11.90;1.00
41469;DHT22;27206;47.032;15.484;2022-10-04T08:23:17;12.10;1.00
41469;DHT22;27206;47.032;15.484;2022-10-04T08:26:02;12.20;1.00
41469;DHT22;27206;47.032;15.484;2022-10-04T08:28:47;12.30;1.00
41469;DHT22;27206;47.032;15.484;2022-10-04T08:31:39;12.40;1.00
41469;DHT22;27206;47.032;15.484;2022-10-04T08:34:32;12.60;1.00
41469;DHT22;27206;47.032;15.484;2022-10-04T08:52:28;14.10;99.90
41469;DHT22;27206;47.032;15.484;2022-10-04T08:57:55;15.00;99.90
41469;DHT22;27206;47.032;15.484;2022-10-04T09:03:27;14.70;99.90
41469;DHT22;27206;47.032;15.484;2022-10-04T09:11:28;14.90;99.90
41469;DHT22;27206;47.032;15.484;2022-10-04T09:14:08;15.10;99.90
41469;DHT22;27206;47.032;15.484;2022-10-04T09:30:00;16.30;99.90
41469;DHT22;27206;47.032;15.484;2022-10-04T09:35:17;16.90;99.90
41469;DHT22;27206;47.032;15.484;2022-10-04T10:03:24;18.60;99.90
41469;DHT22;27206;47.032;15.484;2022-10-04T10:11:50;19.10;99.90
41469;DHT22;27206;47.032;15.484;2022-10-04T10:32:43;21.30;99.90
41469;DHT22;27206;47.032;15.484;2022-10-04T10:40:21;21.70;99.90
41469;DHT22;27206;47.032;15.484;2022-10-04T10:45:24;21.80;99.90
41469;DHT22;27206;47.032;15.484;2022-10-04T11:14:17;22.90;99.90
41469;DHT22;27206;47.032;15.484;2022-10-04T11:17:00;23.10;99.90
41469;DHT22;27206;47.032;15.484;2022-10-04T11:27:21;23.30;99.90
41469;DHT22;27206;47.032;15.484;2022-10-04T11:38:06;23.40;99.90
41469;DHT22;27206;47.032;15.484;2022-10-04T11:43:32;23.70;99.90
41469;DHT22;27206;47.032;15.484;2022-10-04T11:51:06;24.00;99.90
41469;DHT22;27206;47.032;15.484;2022-10-04T11:56:25;23.70;99.90
41469;DHT22;27206;47.032;15.484;2022-10-04T12:12:44;24.80;99.90
41469;DHT22;27206;47.032;15.484;2022-10-04T12:33:38;24.50;99.90
41469;DHT22;27206;47.032;15.484;2022-10-04T12:36:10;24.40;99.90
41469;DHT22;27206;47.032;15.484;2022-10-04T12:48:54;24.20;99.90
41469;DHT22;27206;47.032;15.484;2022-10-04T12:51:26;25.20;99.90
41469;DHT22;27206;47.032;15.484;2022-10-04T12:59:11;25.40;99.90
41469;DHT22;27206;47.032;15.484;2022-10-04T13:09:06;25.00;99.90
41469;DHT22;27206;47.032;15.484;2022-10-04T13:11:44;24.60;99.90
41469;DHT22;27206;47.032;15.484;2022-10-04T13:22:41;24.30;99.90
41469;DHT22;27206;47.032;15.484;2022-10-04T13:35:51;24.40;99.90
41469;DHT22;27206;47.032;15.484;2022-10-04T13:41:33;23.50;99.90
41469;DHT22;27206;47.032;15.484;2022-10-04T13:49:10;24.90;99.90
41469;DHT22;27206;47.032;15.484;2022-10-04T13:51:42;25.10;99.90
41469;DHT22;27206;47.032;15.484;2022-10-04T14:26:11;24.50;99.90
41469;DHT22;27206;47.032;15.484;2022-10-04T14:29:28;24.60;99.90
41469;DHT22;27206;47.032;15.484;2022-10-04T14:36:45;23.60;99.90
41469;DHT22;27206;47.032;15.484;2022-10-04T14:47:27;25.00;99.90
41469;DHT22;27206;47.032;15.484;2022-10-04T15:00:16;25.00;99.90
41469;DHT22;27206;47.032;15.484;2022-10-04T15:02:45;24.90;99.90
41469;DHT22;27206;47.032;15.484;2022-10-04T15:08:09;25.20;99.90
41469;DHT22;27206;47.032;15.484;2022-10-04T15:10:45;25.00;99.90
41469;DHT22;27206;47.032;15.484;2022-10-04T15:16:02;24.40;99.90
41469;DHT22;27206;47.032;15.484;2022-10-04T15:21:19;24.30;99.90
41469;DHT22;27206;47.032;15.484;2022-10-04T15:23:53;24.10;99.90
41469;DHT22;27206;47.032;15.484;2022-10-04T15:34:20;23.50;99.90
41469;DHT22;27206;47.032;15.484;2022-10-04T15:39:22;23.60;99.90
41469;DHT22;27206;47.032;15.484;2022-10-04T15:42:39;23.30;99.90
41469;DHT22;27206;47.032;15.484;2022-10-04T15:44:46;23.20;99.90
41469;DHT22;27206;47.032;15.484;2022-10-04T15:52:39;22.70;99.90
41469;DHT22;27206;47.032;15.484;2022-10-04T16:00:33;22.30;99.90
41469;DHT22;27206;47.032;15.484;2022-10-04T16:05:34;21.80;99.90
41469;DHT22;27206;47.032;15.484;2022-10-04T16:16:10;20.30;99.90
41469;DHT22;27206;47.032;15.484;2022-10-04T16:26:00;18.90;99.90
41469;DHT22;27206;47.032;15.484;2022-10-04T16:33:39;18.30;99.90
41469;DHT22;27206;47.032;15.484;2022-10-04T16:36:09;18.10;99.90
41469;DHT22;27206;47.032;15.484;2022-10-04T16:38:47;17.90;99.90
41469;DHT22;27206;47.032;15.484;2022-10-04T16:44:00;17.60;99.90
41469;DHT22;27206;47.032;15.484;2022-10-04T16:46:34;17.40;99.90
41469;DHT22;27206;47.032;15.484;2022-10-04T16:49:03;17.10;99.90
41469;DHT22;27206;47.032;15.484;2022-10-04T17:04:48;16.00;99.90
41469;DHT22;27206;47.032;15.484;2022-10-04T17:10:00;15.70;99.90
41469;DHT22;27206;47.032;15.484;2022-10-04T17:12:41;15.60;99.90
41469;DHT22;27206;47.032;15.484;2022-10-04T17:22:58;14.90;99.90
41469;DHT22;27206;47.032;15.484;2022-10-04T17:27:56;14.60;1.00
41469;DHT22;27206;47.032;15.484;2022-10-04T17:30:28;14.60;1.00
41469;DHT22;27206;47.032;15.484;2022-10-04T17:38:29;14.30;1.00
41469;DHT22;27206;47.032;15.484;2022-10-04T17:48:15;13.80;1.00
41469;DHT22;27206;47.032;15.484;2022-10-04T17:51:02;13.70;1.00
41469;DHT22;27206;47.032;15.484;2022-10-04T17:53:49;13.70;1.00
41469;DHT22;27206;47.032;15.484;2022-10-04T17:56:48;13.30;1.00
41469;DHT22;27206;47.032;15.484;2022-10-04T17:59:15;13.10;1.00
41469;DHT22;27206;47.032;15.484;2022-10-04T18:01:46;13.10;1.00
41469;DHT22;27206;47.032;15.484;2022-10-04T18:07:07;13.00;1.00
41469;DHT22;27206;47.032;15.484;2022-10-04T18:09:50;12.90;1.00
41469;DHT22;27206;47.032;15.484;2022-10-04T18:17:43;12.80;1.00
41469;DHT22;27206;47.032;15.484;2022-10-04T18:25:27;12.70;1.00
41469;DHT22;27206;47.032;15.484;2022-10-04T18:28:00;12.60;1.00
41469;DHT22;27206;47.032;15.484;2022-10-04T18:30:31;12.60;1.00
41469;DHT22;27206;47.032;15.484;2022-10-04T18:32:57;12.40;1.00
41469;DHT22;27206;47.032;15.484;2022-10-04T18:40:32;12.10;1.00
41469;DHT22;27206;47.032;15.484;2022-10-04T18:42:58;12.10;1.00
41469;DHT22;27206;47.032;15.484;2022-10-04T18:45:30;11.90;1.00
41469;DHT22;27206;47.032;15.484;2022-10-04T18:48:00;11.90;1.00
41469;DHT22;27206;47.032;15.484;2022-10-04T18:58:05;12.00;1.00
41469;DHT22;27206;47.032;15.484;2022-10-04T19:01:00;11.80;1.00
41469;DHT22;27206;47.032;15.484;2022-10-04T19:03:52;11.50;1.00
41469;DHT22;27206;47.032;15.484;2022-10-04T19:06:23;11.40;1.00
41469;DHT22;27206;47.032;15.484;2022-10-04T19:11:39;11.40;1.00
41469;DHT22;27206;47.032;15.484;2022-10-04T19:27:49;11.10;1.00
41469;DHT22;27206;47.032;15.484;2022-10-04T19:30:19;11.10;1.00
41469;DHT22;27206;47.032;15.484;2022-10-04T19:37:42;10.90;1.00
41469;DHT22;27206;47.032;15.484;2022-10-04T19:47:54;10.80;1.00
41469;DHT22;27206;47.032;15.484;2022-10-04T19:52:55;10.60;1.00
41469;DHT22;27206;47.032;15.484;2022-10-04T19:58:12;10.50;1.00
41469;DHT22;27206;47.032;15.484;2022-10-04T20:00:41;10.40;1.00
41469;DHT22;27206;47.032;15.484;2022-10-04T20:03:10;10.40;1.00
41469;DHT22;27206;47.032;15.484;2022-10-04T20:05:43;10.30;1.00
41469;DHT22;27206;47.032;15.484;2022-10-04T20:08:10;10.30;1.00
41469;DHT22;27206;47.032;15.484;2022-10-04T20:10:36;10.30;1.00
41469;DHT22;27206;47.032;15.484;2022-10-04T20:18:00;10.30;1.00
41469;DHT22;27206;47.032;15.484;2022-10-04T20:23:03;10.30;1.00
41469;DHT22;27206;47.032;15.484;2022-10-04T20:28:35;10.30;1.00
41469;DHT22;27206;47.032;15.484;2022-10-04T20:31:03;10.10;1.00
41469;DHT22;27206;47.032;15.484;2022-10-04T20:43:56;10.00;1.00
41469;DHT22;27206;47.032;15.484;2022-10-04T20:46:22;10.00;1.00
41469;DHT22;27206;47.032;15.484;2022-10-04T20:48:48;10.00;1.00
41469;DHT22;27206;47.032;15.484;2022-10-04T20:51:13;9.90;1.00
41469;DHT22;27206;47.032;15.484;2022-10-04T20:53:41;9.90;1.00
41469;DHT22;27206;47.032;15.484;2022-10-04T20:58:51;9.80;1.00
41469;DHT22;27206;47.032;15.484;2022-10-04T21:01:25;9.80;1.00
41469;DHT22;27206;47.032;15.484;2022-10-04T21:07:05;9.70;1.00
41469;DHT22;27206;47.032;15.484;2022-10-04T21:09:32;9.70;1.00
41469;DHT22;27206;47.032;15.484;2022-10-04T21:11:59;9.70;1.00
41469;DHT22;27206;47.032;15.484;2022-10-04T21:16:55;9.60;1.00
41469;DHT22;27206;47.032;15.484;2022-10-04T21:19:27;9.50;1.00
41469;DHT22;27206;47.032;15.484;2022-10-04T21:21:53;9.40;1.00
41469;DHT22;27206;47.032;15.484;2022-10-04T21:24:53;9.30;1.00
41469;DHT22;27206;47.032;15.484;2022-10-04T21:27:11;9.40;1.00
41469;DHT22;27206;47.032;15.484;2022-10-04T21:29:49;9.40;1.00
41469;DHT22;27206;47.032;15.484;2022-10-04T21:32:14;9.40;1.00
41469;DHT22;27206;47.032;15.484;2022-10-04T21:34:40;9.40;1.00
41469;DHT22;27206;47.032;15.484;2022-10-04T21:37:05;9.40;1.00
41469;DHT22;27206;47.032;15.484;2022-10-04T21:39:31;9.40;1.00
41469;DHT22;27206;47.032;15.484;2022-10-04T21:41:56;9.30;1.00
41469;DHT22;27206;47.032;15.484;2022-10-04T21:44:21;9.20;1.00
41469;DHT22;27206;47.032;15.484;2022-10-04T21:46:47;9.30;1.00
41469;DHT22;27206;47.032;15.484;2022-10-04T21:49:12;9.20;1.00
41469;DHT22;27206;47.032;15.484;2022-10-04T21:51:38;9.10;1.00
41469;DHT22;27206;47.032;15.484;2022-10-04T21:54:06;9.10;1.00
41469;DHT22;27206;47.032;15.484;2022-10-04T21:56:31;9.00;1.00
41469;DHT22;27206;47.032;15.484;2022-10-04T21:58:57;9.00;1.00
41469;DHT22;27206;47.032;15.484;2022-10-04T22:01:23;9.00;1.00
41469;DHT22;27206;47.032;15.484;2022-10-04T22:03:48;9.10;1.00
41469;DHT22;27206;47.032;15.484;2022-10-04T22:06:15;9.10;1.00
41469;DHT22;27206;47.032;15.484;2022-10-04T22:08:40;9.10;1.00
41469;DHT22;27206;47.032;15.484;2022-10-04T22:11:07;9.10;1.00
41469;DHT22;27206;47.032;15.484;2022-10-04T22:13:32;9.10;1.00
41469;DHT22;27206;47.032;15.484;2022-10-04T22:15:58;9.00;1.00
41469;DHT22;27206;47.032;15.484;2022-10-04T22:18:23;9.00;1.00
41469;DHT22;27206;47.032;15.484;2022-10-04T22:20:49;9.00;1.00
41469;DHT22;27206;47.032;15.484;2022-10-04T22:23:21;9.00;1.00
41469;DHT22;27206;47.032;15.484;2022-10-04T22:25:47;8.80;1.00
41469;DHT22;27206;47.032;15.484;2022-10-04T22:28:20;8.80;1.00
41469;DHT22;27206;47.032;15.484;2022-10-04T22:30:46;8.90;1.00
41469;DHT22;27206;47.032;15.484;2022-10-04T22:38:37;8.80;1.00
41469;DHT22;27206;47.032;15.484;2022-10-04T22:41:11;8.90;1.00
41469;DHT22;27206;47.032;15.484;2022-10-04T22:43:38;8.80;1.00
41469;DHT22;27206;47.032;15.484;2022-10-04T22:46:04;8.80;1.00
41469;DHT22;27206;47.032;15.484;2022-10-04T22:48:30;8.70;1.00
41469;DHT22;27206;47.032;15.484;2022-10-04T22:50:56;8.50;1.00
41469;DHT22;27206;47.032;15.484;2022-10-04T22:53:22;8.60;1.00
41469;DHT22;27206;47.032;15.484;2022-10-04T22:55:48;8.70;1.00
41469;DHT22;27206;47.032;15.484;2022-10-04T22:58:14;8.60;1.00
41469;DHT22;27206;47.032;15.484;2022-10-04T23:00:40;8.50;1.00
41469;DHT22;27206;47.032;15.484;2022-10-04T23:05:37;8.60;1.00
41469;DHT22;27206;47.032;15.484;2022-10-04T23:08:03;8.50;1.00
41469;DHT22;27206;47.032;15.484;2022-10-04T23:10:28;8.60;1.00
41469;DHT22;27206;47.032;15.484;2022-10-04T23:12:54;8.60;1.00
41469;DHT22;27206;47.032;15.484;2022-10-04T23:15:19;8.50;1.00
41469;DHT22;27206;47.032;15.484;2022-10-04T23:17:49;8.50;1.00
41469;DHT22;27206;47.032;15.484;2022-10-04T23:20:17;8.50;1.00
41469;DHT22;27206;47.032;15.484;2022-10-04T23:22:48;8.40;1.00
41469;DHT22;27206;47.032;15.484;2022-10-04T23:25:15;8.40;1.00
41469;DHT22;27206;47.032;15.484;2022-10-04T23:27:41;8.30;1.00
41469;DHT22;27206;47.032;15.484;2022-10-04T23:30:14;8.30;1.00
41469;DHT22;27206;47.032;15.484;2022-10-04T23:32:40;8.30;1.00
41469;DHT22;27206;47.032;15.484;2022-10-04T23:35:12;8.40;1.00
41469;DHT22;27206;47.032;15.484;2022-10-04T23:37:38;8.30;1.00
41469;DHT22;27206;47.032;15.484;2022-10-04T23:40:07;8.40;1.00
41469;DHT22;27206;47.032;15.484;2022-10-04T23:42:32;8.40;1.00
41469;DHT22;27206;47.032;15.484;2022-10-04T23:44:58;8.40;1.00
41469;DHT22;27206;47.032;15.484;2022-10-04T23:47:26;8.40;1.00
41469;DHT22;27206;47.032;15.484;2022-10-04T23:49:55;8.40;1.00
41469;DHT22;27206;47.032;15.484;2022-10-04T23:52:21;8.30;1.00
41469;DHT22;27206;47.032;15.484;2022-10-04T23:54:49;8.30;1.00
41469;DHT22;27206;47.032;15.484;2022-10-04T23:57:20;8.20;1.00
41469;DHT22;27206;47.032;15.484;2022-10-04T23:59:46;8.20;1.00
